Time;durP1;ratioP1;P1;durP2;ratioP2;P2;SDS_P1;SDS_P2;PMS_P1;PMS_P2;Temp;Humidity;BMP_temperature;BMP_pressure;BME280_temperature;BME280_humidity;BME280_pressure;Samples;Min_cycle;Max_cycle;Signal;HPM_P1;HPM_P2
2022/12/15 00:40:17;;;;;;;10.45;5.80;;;;;;;;;;5059965;28;20596;-82
2022/12/15 00:42:45;;;;;;;14.40;8.15;;;;;;;;;;5060023;28;20316;-83
2022/12/15 00:45:12;;;;;;;13.82;7.78;;;;;;;;;;5068550;28;20686;-84
2022/12/15 00:47:39;;;;;;;8.77;6.65;;;;;;;;;;5064533;28;20226;-84
2022/12/15 01:20:31;;;;;;;6.93;6.18;;;;;;;;;;5068012;28;20211;-84
2022/12/15 01:23:00;;;;;;;9.93;6.82;;;;;;;;;;5065622;28;20225;-84
2022/12/15 01:25:28;;;;;;;9.85;6.82;;;;;;;;;;5057687;28;20257;-84
2022/12/15 01:27:55;;;;;;;5.88;4.55;;;;;;;;;;5068963;28;20233;-83
2022/12/15 01:30:26;;;;;;;7.90;5.43;;;;;;;;;;5067173;28;20709;-84
2022/12/15 01:32:54;;;;;;;9.27;6.90;;;;;;;;;;5060986;28;22056;-83
2022/12/15 01:35:22;;;;;;;8.65;5.82;;;;;;;;;;5060784;28;20260;-84
2022/12/15 01:37:50;;;;;;;5.45;4.18;;;;;;;;;;5061632;28;20205;-85
2022/12/15 01:43:12;;;;;;;8.85;6.57;;;;;;;;;;5054288;28;20339;-84
2022/12/15 01:45:54;;;;;;;10.13;6.15;;;;;;;;;;5064136;28;20201;-84
2022/12/15 01:48:28;;;;;;;5.43;4.90;;;;;;;;;;5059728;28;20218;-84
2022/12/15 01:51:06;;;;;;;5.15;4.47;;;;;;;;;;5060267;28;20224;-84
2022/12/15 01:53:37;;;;;;;4.93;4.25;;;;;;;;;;5061044;28;20221;-83
2022/12/15 01:56:07;;;;;;;5.40;3.83;;;;;;;;;;5063030;28;20666;-84
2022/12/15 01:58:35;;;;;;;12.32;6.40;;;;;;;;;;5059178;28;20273;-84
2022/12/15 02:01:03;;;;;;;8.40;6.50;;;;;;;;;;5051825;28;20285;-84
2022/12/15 02:03:31;;;;;;;9.77;6.40;;;;;;;;;;5060734;28;20649;-84
2022/12/15 02:06:00;;;;;;;6.45;5.05;;;;;;;;;;5061079;28;20253;-84
2022/12/15 02:08:28;;;;;;;8.32;5.53;;;;;;;;;;5067445;28;20233;-84
2022/12/15 02:11:24;;;;;;;8.43;7.28;;;;;;;;;;5062650;28;20239;-84
2022/12/15 02:14:00;;;;;;;7.93;5.05;;;;;;;;;;5046723;28;20285;-83
2022/12/15 02:16:38;;;;;;;8.57;6.00;;;;;;;;;;5053082;28;20182;-83
2022/12/15 02:19:25;;;;;;;6.90;5.10;;;;;;;;;;5053856;28;20293;-85
2022/12/15 02:22:07;;;;;;;10.57;6.20;;;;;;;;;;5055093;28;20217;-84
2022/12/15 02:24:57;;;;;;;6.78;5.80;;;;;;;;;;5060451;28;20221;-83
2022/12/15 02:27:49;;;;;;;9.20;7.15;;;;;;;;;;5068939;28;20219;-84
2022/12/15 02:30:26;;;;;;;6.72;5.18;;;;;;;;;;5061913;28;20202;-84
2022/12/15 02:33:07;;;;;;;8.65;6.45;;;;;;;;;;5059865;28;20693;-84
2022/12/15 02:35:45;;;;;;;11.73;8.27;;;;;;;;;;5058875;28;20580;-84
2022/12/15 02:38:13;;;;;;;11.25;7.15;;;;;;;;;;5064373;28;20201;-84
2022/12/15 02:40:41;;;;;;;11.55;8.80;;;;;;;;;;5064514;28;20237;-84
2022/12/15 02:43:09;;;;;;;8.52;7.63;;;;;;;;;;5057145;28;20286;-84
2022/12/15 02:45:46;;;;;;;9.55;6.47;;;;;;;;;;5065893;28;20202;-84
2022/12/15 02:48:26;;;;;;;11.00;7.93;;;;;;;;;;5071589;28;20197;-84
2022/12/15 02:51:08;;;;;;;9.27;7.20;;;;;;;;;;5064493;28;20595;-84
2022/12/15 02:53:59;;;;;;;6.82;5.70;;;;;;;;;;5065096;28;21184;-84
2022/12/15 02:56:32;;;;;;;6.63;4.57;;;;;;;;;;5057267;28;20662;-84
2022/12/15 02:59:09;;;;;;;7.18;5.35;;;;;;;;;;5064317;28;20722;-83
2022/12/15 03:01:44;;;;;;;6.85;5.15;;;;;;;;;;5064559;28;20225;-84
2022/12/15 03:04:13;;;;;;;5.68;4.30;;;;;;;;;;5067864;28;20217;-84
2022/12/15 03:06:40;;;;;;;8.45;5.45;;;;;;;;;;5065073;28;20547;-84
2022/12/15 03:09:08;;;;;;;5.38;4.38;;;;;;;;;;5063496;28;20197;-84
2022/12/15 03:11:36;;;;;;;12.35;7.28;;;;;;;;;;5067384;28;20201;-84
2022/12/15 03:14:04;;;;;;;6.30;5.70;;;;;;;;;;5061306;28;20302;-83
2022/12/15 03:16:31;;;;;;;4.22;3.83;;;;;;;;;;5062473;28;20231;-84
2022/12/15 03:19:00;;;;;;;12.27;6.95;;;;;;;;;;5069680;28;20202;-84
2022/12/15 03:21:28;;;;;;;13.65;8.13;;;;;;;;;;5063779;28;20308;-84
2022/12/15 03:23:55;;;;;;;7.97;6.43;;;;;;;;;;5067214;28;20213;-83
2022/12/15 03:26:23;;;;;;;7.97;5.20;;;;;;;;;;5061592;28;20217;-84
2022/12/15 03:28:51;;;;;;;6.97;5.78;;;;;;;;;;5061276;28;20231;-84
2022/12/15 03:31:19;;;;;;;14.32;9.18;;;;;;;;;;5063480;28;20244;-83
2022/12/15 03:33:46;;;;;;;14.02;9.57;;;;;;;;;;5065139;28;20252;-84
2022/12/15 03:36:15;;;;;;;12.10;8.90;;;;;;;;;;5062942;28;20212;-84
2022/12/15 03:38:43;;;;;;;13.57;9.38;;;;;;;;;;5070387;28;20232;-85
2022/12/15 03:41:10;;;;;;;13.55;9.77;;;;;;;;;;5064100;28;20221;-84
2022/12/15 03:43:38;;;;;;;14.48;11.02;;;;;;;;;;5063368;28;20673;-84
2022/12/15 03:46:05;;;;;;;14.43;10.82;;;;;;;;;;5055206;28;20624;-84
2022/12/15 03:48:33;;;;;;;10.65;8.52;;;;;;;;;;5064311;28;20202;-84
2022/12/15 03:51:01;;;;;;;12.02;8.02;;;;;;;;;;5070962;28;20248;-83
2022/12/15 03:53:30;;;;;;;11.07;7.95;;;;;;;;;;5070398;28;20277;-83
2022/12/15 03:55:57;;;;;;;14.73;9.23;;;;;;;;;;5062477;28;20631;-84
2022/12/15 03:58:25;;;;;;;16.48;10.73;;;;;;;;;;5061802;28;20198;-83
2022/12/15 04:00:52;;;;;;;13.27;9.35;;;;;;;;;;5062598;28;20275;-83
2022/12/15 04:03:20;;;;;;;11.70;8.00;;;;;;;;;;5062468;28;20309;-84
2022/12/15 04:05:48;;;;;;;7.20;6.15;;;;;;;;;;5062248;28;20294;-83
2022/12/15 04:08:15;;;;;;;6.55;5.53;;;;;;;;;;5064225;28;20565;-83
2022/12/15 04:10:44;;;;;;;6.47;5.50;;;;;;;;;;5059042;28;20228;-84
2022/12/15 04:13:13;;;;;;;9.82;6.63;;;;;;;;;;5057641;28;20670;-84
2022/12/15 04:15:41;;;;;;;7.07;5.80;;;;;;;;;;5050640;28;20210;-82
2022/12/15 04:18:10;;;;;;;6.47;5.72;;;;;;;;;;5064329;28;20237;-84
2022/12/15 04:20:37;;;;;;;11.35;8.98;;;;;;;;;;5059172;28;20230;-84
2022/12/15 04:23:06;;;;;;;11.32;8.50;;;;;;;;;;5058067;28;20308;-84
2022/12/15 05:31:58;;;;;;;16.65;9.18;;;;;;;;;;5059026;28;20208;-88
2022/12/15 05:34:30;;;;;;;16.85;11.00;;;;;;;;;;5059448;28;20241;-87
2022/12/15 05:37:00;;;;;;;19.02;11.52;;;;;;;;;;5058254;28;20205;-87
2022/12/15 05:39:28;;;;;;;19.00;11.73;;;;;;;;;;5048729;28;20289;-87
2022/12/15 05:41:56;;;;;;;17.13;11.55;;;;;;;;;;5058823;28;20754;-87
2022/12/15 05:44:25;;;;;;;19.05;12.45;;;;;;;;;;5057881;28;20217;-87
2022/12/15 05:46:52;;;;;;;19.00;12.15;;;;;;;;;;5059820;28;20244;-87
2022/12/15 05:49:22;;;;;;;18.35;12.93;;;;;;;;;;5064522;28;20208;-87
2022/12/15 05:51:51;;;;;;;20.30;11.95;;;;;;;;;;5060942;28;20198;-87
2022/12/15 05:54:20;;;;;;;15.48;12.07;;;;;;;;;;5071671;28;20221;-88
2022/12/15 05:56:48;;;;;;;18.92;11.98;;;;;;;;;;5056601;28;20233;-86
2022/12/15 05:59:16;;;;;;;16.35;12.45;;;;;;;;;;5064683;28;20288;-88
2022/12/15 06:01:44;;;;;;;18.52;12.30;;;;;;;;;;5060203;28;20248;-88
2022/12/15 06:04:13;;;;;;;17.88;11.18;;;;;;;;;;5060342;28;20355;-87
2022/12/15 06:06:40;;;;;;;15.60;11.05;;;;;;;;;;5060697;28;20289;-87
2022/12/15 06:09:10;;;;;;;16.90;10.77;;;;;;;;;;5055810;28;20232;-88
2022/12/15 06:11:37;;;;;;;16.10;12.10;;;;;;;;;;5064777;28;20274;-86
2022/12/15 06:14:05;;;;;;;15.38;10.55;;;;;;;;;;5056370;28;21880;-87
2022/12/15 06:16:33;;;;;;;17.85;11.20;;;;;;;;;;5056740;28;20244;-87
2022/12/15 06:19:02;;;;;;;18.42;12.20;;;;;;;;;;5055926;28;20667;-87
2022/12/15 06:21:35;;;;;;;19.33;10.73;;;;;;;;;;5058261;28;20228;-86
2022/12/15 06:24:03;;;;;;;13.80;10.40;;;;;;;;;;5057238;28;20312;-88
2022/12/15 06:26:34;;;;;;;16.20;11.55;;;;;;;;;;5059858;28;20284;-88
2022/12/15 06:29:04;;;;;;;16.45;11.20;;;;;;;;;;5051145;28;21384;-88
2022/12/15 06:31:32;;;;;;;15.68;10.32;;;;;;;;;;5055532;28;20194;-88
2022/12/15 06:34:03;;;;;;;16.35;11.32;;;;;;;;;;5056047;28;20229;-87
2022/12/15 06:36:31;;;;;;;11.85;9.13;;;;;;;;;;5055301;28;20700;-88
2022/12/15 06:39:00;;;;;;;13.82;8.43;;;;;;;;;;5055568;28;20658;-88
2022/12/15 06:41:29;;;;;;;10.55;8.18;;;;;;;;;;5053965;28;20561;-88
2022/12/15 06:43:59;;;;;;;20.75;12.43;;;;;;;;;;5050363;28;20226;-88
2022/12/15 06:46:27;;;;;;;9.95;7.80;;;;;;;;;;5051555;28;20207;-88
2022/12/15 06:49:05;;;;;;;19.23;10.85;;;;;;;;;;5069317;28;20197;-87
2022/12/15 06:51:33;;;;;;;16.27;11.90;;;;;;;;;;5059021;28;20558;-87
2022/12/15 06:54:00;;;;;;;19.52;11.82;;;;;;;;;;5056011;28;20213;-88
2022/12/15 06:56:41;;;;;;;17.48;11.25;;;;;;;;;;5057179;28;20212;-86
2022/12/15 06:59:12;;;;;;;16.10;11.45;;;;;;;;;;5057130;28;20240;-87
2022/12/15 07:01:40;;;;;;;19.90;11.45;;;;;;;;;;5057340;28;20209;-87
2022/12/15 07:04:10;;;;;;;21.02;13.00;;;;;;;;;;5054102;28;20233;-87
2022/12/15 07:06:38;;;;;;;14.98;9.70;;;;;;;;;;5051164;28;20226;-86
2022/12/15 07:09:09;;;;;;;11.98;8.23;;;;;;;;;;5063849;28;20233;-87
2022/12/15 07:11:37;;;;;;;14.30;8.93;;;;;;;;;;5056162;28;20201;-86
2022/12/15 07:14:22;;;;;;;15.60;10.68;;;;;;;;;;5044923;28;20237;-87
2022/12/15 07:16:50;;;;;;;17.10;10.65;;;;;;;;;;5049569;28;20216;-87
2022/12/15 07:19:17;;;;;;;13.93;10.38;;;;;;;;;;5053029;28;20367;-87
2022/12/15 07:21:45;;;;;;;18.27;10.15;;;;;;;;;;5050228;28;20206;-87
2022/12/15 07:24:13;;;;;;;15.50;10.55;;;;;;;;;;5056132;28;20257;-88
2022/12/15 07:26:41;;;;;;;13.88;8.13;;;;;;;;;;5058347;28;20209;-88
2022/12/15 07:29:10;;;;;;;29.42;16.30;;;;;;;;;;5056687;28;20205;-87
2022/12/15 07:31:39;;;;;;;19.48;10.68;;;;;;;;;;5053581;28;20581;-86
2022/12/15 07:34:07;;;;;;;13.35;7.15;;;;;;;;;;5058403;28;20268;-86
2022/12/15 07:36:34;;;;;;;13.40;8.63;;;;;;;;;;5058005;28;20249;-87
2022/12/15 07:39:05;;;;;;;14.85;8.20;;;;;;;;;;5054891;28;20213;-86
2022/12/15 07:41:33;;;;;;;13.80;8.75;;;;;;;;;;5052181;28;20686;-87
2022/12/15 07:44:01;;;;;;;15.82;10.35;;;;;;;;;;5057750;28;20311;-86
2022/12/15 07:46:28;;;;;;;17.30;10.88;;;;;;;;;;5056832;28;20201;-85
2022/12/15 07:48:57;;;;;;;19.90;11.00;;;;;;;;;;5047618;28;20877;-85
2022/12/15 07:51:26;;;;;;;13.15;9.13;;;;;;;;;;5036630;28;20293;-87
2022/12/15 07:53:53;;;;;;;17.63;10.82;;;;;;;;;;5051855;28;20308;-88
2022/12/15 07:56:21;;;;;;;14.82;9.02;;;;;;;;;;5056384;28;20613;-87
2022/12/15 07:58:49;;;;;;;18.38;11.23;;;;;;;;;;5055885;28;20288;-87
2022/12/15 08:01:18;;;;;;;14.38;10.32;;;;;;;;;;5056625;28;20205;-88
2022/12/15 08:03:46;;;;;;;13.90;9.50;;;;;;;;;;5056050;28;20316;-88
2022/12/15 08:06:16;;;;;;;12.18;7.20;;;;;;;;;;5056404;28;20210;-88
2022/12/15 08:08:45;;;;;;;10.27;7.68;;;;;;;;;;5054971;28;20650;-88
2022/12/15 08:11:15;;;;;;;11.73;7.60;;;;;;;;;;5056051;28;20285;-87
2022/12/15 08:13:44;;;;;;;13.05;8.75;;;;;;;;;;5056398;28;20217;-87
2022/12/15 08:16:12;;;;;;;12.07;9.85;;;;;;;;;;5056357;28;20206;-87
2022/12/15 08:18:40;;;;;;;10.10;7.00;;;;;;;;;;5044305;28;20229;-87
2022/12/15 08:21:09;;;;;;;16.42;9.27;;;;;;;;;;5051186;28;20642;-87
2022/12/15 08:23:39;;;;;;;7.80;6.10;;;;;;;;;;5055985;28;20814;-88
2022/12/15 08:26:10;;;;;;;13.55;9.23;;;;;;;;;;5056198;28;20190;-87
2022/12/15 08:28:39;;;;;;;17.77;9.73;;;;;;;;;;5055027;28;20229;-87
2022/12/15 08:31:09;;;;;;;12.75;8.88;;;;;;;;;;5056238;28;20292;-87
2022/12/15 08:33:37;;;;;;;9.70;8.43;;;;;;;;;;5055708;28;20253;-87
2022/12/15 08:36:07;;;;;;;7.35;5.55;;;;;;;;;;5056281;28;20252;-88
2022/12/15 08:38:38;;;;;;;15.35;9.68;;;;;;;;;;5049572;28;20282;-88
2022/12/15 08:41:10;;;;;;;12.52;8.52;;;;;;;;;;5048661;28;20674;-87
2022/12/15 08:43:38;;;;;;;12.27;7.82;;;;;;;;;;5056693;28;20230;-88
2022/12/15 08:46:06;;;;;;;13.27;8.40;;;;;;;;;;5056171;28;20251;-87
2022/12/15 08:48:35;;;;;;;13.10;8.10;;;;;;;;;;5054773;28;20621;-87
2022/12/15 08:51:03;;;;;;;9.38;6.30;;;;;;;;;;5047470;28;20639;-88
2022/12/15 08:53:30;;;;;;;11.43;7.05;;;;;;;;;;5055334;28;20632;-87
2022/12/15 08:56:05;;;;;;;8.05;6.13;;;;;;;;;;5055538;28;20233;-87
2022/12/15 08:58:33;;;;;;;10.30;6.32;;;;;;;;;;5057197;28;20623;-88
2022/12/15 09:01:01;;;;;;;10.88;7.10;;;;;;;;;;5056795;28;20237;-88
2022/12/15 09:03:29;;;;;;;14.50;9.45;;;;;;;;;;5055144;28;20267;-88
2022/12/15 09:05:57;;;;;;;9.07;5.63;;;;;;;;;;5054877;28;20229;-87
2022/12/15 09:08:25;;;;;;;10.07;7.53;;;;;;;;;;5047596;28;20194;-87
2022/12/15 09:10:53;;;;;;;10.75;6.70;;;;;;;;;;5035161;28;20240;-86
2022/12/15 09:13:21;;;;;;;16.52;10.57;;;;;;;;;;5034900;28;20222;-87
2022/12/15 09:15:56;;;;;;;16.17;10.05;;;;;;;;;;5053570;28;20616;-88
2022/12/15 09:18:24;;;;;;;15.93;8.82;;;;;;;;;;5054530;28;20665;-88
2022/12/15 09:20:52;;;;;;;10.65;8.10;;;;;;;;;;5054798;28;20290;-87
2022/12/15 09:23:20;;;;;;;12.32;9.25;;;;;;;;;;5051182;28;20291;-87
2022/12/15 09:25:48;;;;;;;10.63;7.15;;;;;;;;;;5044165;28;20247;-87
2022/12/15 09:28:16;;;;;;;12.07;8.02;;;;;;;;;;5054787;28;20251;-87
2022/12/15 09:30:44;;;;;;;10.43;7.82;;;;;;;;;;5054757;28;20252;-87
2022/12/15 09:33:12;;;;;;;10.63;7.20;;;;;;;;;;5054307;28;20236;-87
2022/12/15 09:35:40;;;;;;;12.25;7.35;;;;;;;;;;5055067;28;20205;-86
2022/12/15 09:38:07;;;;;;;10.25;6.90;;;;;;;;;;5055675;28;20197;-87
2022/12/15 09:40:35;;;;;;;11.90;6.97;;;;;;;;;;5056023;28;20204;-87
2022/12/15 09:43:02;;;;;;;9.65;6.10;;;;;;;;;;5034549;28;20821;-87
2022/12/15 09:45:37;;;;;;;9.90;7.00;;;;;;;;;;5033487;28;20305;-88
2022/12/15 09:48:10;;;;;;;9.43;5.85;;;;;;;;;;5033243;28;20198;-88
2022/12/15 09:50:39;;;;;;;10.50;7.05;;;;;;;;;;5050645;28;20284;-88
2022/12/15 09:53:10;;;;;;;8.85;5.45;;;;;;;;;;5073633;28;20311;-88
2022/12/15 09:55:38;;;;;;;6.80;5.40;;;;;;;;;;5054108;28;20225;-87
2022/12/15 09:58:11;;;;;;;8.07;6.13;;;;;;;;;;5053656;28;20261;-87
2022/12/15 10:00:43;;;;;;;8.18;6.20;;;;;;;;;;5053593;28;20236;-87
2022/12/15 10:03:40;;;;;;;9.13;6.95;;;;;;;;;;5053983;28;20222;-87
2022/12/15 10:06:11;;;;;;;9.55;6.60;;;;;;;;;;5053434;28;20289;-88
2022/12/15 10:08:41;;;;;;;12.88;8.63;;;;;;;;;;5069679;28;20197;-88
2022/12/15 10:11:32;;;;;;;14.18;8.52;;;;;;;;;;5074067;28;20219;-88
2022/12/15 10:14:09;;;;;;;10.82;8.10;;;;;;;;;;5070997;28;20312;-88
2022/12/15 10:16:48;;;;;;;15.40;10.25;;;;;;;;;;5072442;28;20266;-88
2022/12/15 10:19:22;;;;;;;13.88;9.80;;;;;;;;;;5053390;28;20292;-88
2022/12/15 10:21:50;;;;;;;8.40;6.55;;;;;;;;;;5054559;28;20204;-87
2022/12/15 10:24:19;;;;;;;12.27;9.00;;;;;;;;;;5052563;28;20772;-87
2022/12/15 10:26:55;;;;;;;16.13;10.73;;;;;;;;;;5046723;28;20280;-88
2022/12/15 10:29:33;;;;;;;13.32;7.00;;;;;;;;;;5051424;28;20198;-87
2022/12/15 10:32:04;;;;;;;13.50;9.88;;;;;;;;;;5048314;28;20225;-87
2022/12/15 10:34:35;;;;;;;13.15;8.18;;;;;;;;;;5056760;28;20190;-87
2022/12/15 10:37:03;;;;;;;10.40;7.45;;;;;;;;;;5056222;28;20217;-87
2022/12/15 10:39:39;;;;;;;10.07;7.07;;;;;;;;;;5062988;22;20237;-87
2022/12/15 10:42:20;;;;;;;14.60;9.50;;;;;;;;;;5070048;28;20566;-88
2022/12/15 10:44:50;;;;;;;13.50;8.55;;;;;;;;;;5077952;28;20216;-86
2022/12/15 10:47:22;;;;;;;11.05;7.45;;;;;;;;;;5077879;28;20292;-87
2022/12/15 10:49:52;;;;;;;8.48;6.85;;;;;;;;;;5074836;28;20217;-88
2022/12/15 10:52:27;;;;;;;9.63;7.07;;;;;;;;;;5057913;28;20287;-87
2022/12/15 10:54:56;;;;;;;11.40;8.43;;;;;;;;;;5074560;28;20274;-87
2022/12/15 10:57:30;;;;;;;15.55;9.10;;;;;;;;;;5088102;28;20209;-88
2022/12/15 11:00:27;;;;;;;15.05;9.55;;;;;;;;;;5081822;28;20563;-85
2022/12/15 11:02:55;;;;;;;11.23;7.78;;;;;;;;;;5083239;28;20212;-84
2022/12/15 11:05:24;;;;;;;14.40;10.52;;;;;;;;;;5083102;28;20217;-85
2022/12/15 11:07:54;;;;;;;12.93;9.73;;;;;;;;;;5092881;28;20249;-86
2022/12/15 11:10:23;;;;;;;16.25;11.35;;;;;;;;;;5089225;28;20711;-84
2022/12/15 11:13:09;;;;;;;19.75;12.63;;;;;;;;;;5074703;28;20246;-85
2022/12/15 11:15:41;;;;;;;17.40;10.77;;;;;;;;;;5081240;28;20201;-85
2022/12/15 11:18:27;;;;;;;16.27;12.38;;;;;;;;;;5081840;28;20330;-84
2022/12/15 11:21:02;;;;;;;21.48;14.25;;;;;;;;;;5086369;28;20216;-86
2022/12/15 11:23:52;;;;;;;18.45;12.40;;;;;;;;;;5083148;28;20237;-86
2022/12/15 11:26:46;;;;;;;14.75;10.13;;;;;;;;;;5082926;28;20205;-85
2022/12/15 11:29:24;;;;;;;18.05;10.60;;;;;;;;;;5082331;28;20272;-87
2022/12/15 11:31:54;;;;;;;16.27;9.75;;;;;;;;;;5075509;28;20677;-84
2022/12/15 11:34:24;;;;;;;14.32;9.63;;;;;;;;;;5082562;28;20204;-87
2022/12/15 11:37:33;;;;;;;17.23;11.50;;;;;;;;;;5082712;28;20774;-86
2022/12/15 11:40:20;;;;;;;14.32;10.07;;;;;;;;;;5067324;28;20224;-85
2022/12/15 11:43:05;;;;;;;19.65;12.48;;;;;;;;;;5062967;28;20212;-84
2022/12/15 11:45:40;;;;;;;22.95;12.23;;;;;;;;;;5081850;28;20217;-86
2022/12/15 11:48:16;;;;;;;17.48;11.50;;;;;;;;;;5082187;28;20622;-85
2022/12/15 11:50:53;;;;;;;16.83;10.65;;;;;;;;;;5081084;28;20217;-84
2022/12/15 11:53:50;;;;;;;11.40;9.63;;;;;;;;;;5080510;28;20196;-85
2022/12/15 11:56:25;;;;;;;16.48;12.00;;;;;;;;;;5091677;28;20207;-85
2022/12/15 11:59:09;;;;;;;19.63;11.38;;;;;;;;;;5102192;28;20209;-86
2022/12/15 12:01:56;;;;;;;16.60;10.77;;;;;;;;;;5084768;28;20233;-83
2022/12/15 12:04:26;;;;;;;14.32;11.10;;;;;;;;;;5078429;28;20189;-84
2022/12/15 12:07:04;;;;;;;20.13;12.07;;;;;;;;;;5077614;28;20201;-84
2022/12/15 12:09:36;;;;;;;18.40;11.70;;;;;;;;;;5077336;28;20312;-85
2022/12/15 12:12:20;;;;;;;16.15;12.02;;;;;;;;;;5086231;28;20190;-84
2022/12/15 12:14:59;;;;;;;14.98;11.90;;;;;;;;;;5066066;28;20225;-84
2022/12/15 12:17:38;;;;;;;17.50;10.50;;;;;;;;;;5078339;28;20947;-85
2022/12/15 12:20:16;;;;;;;15.32;9.27;;;;;;;;;;5078722;28;20281;-84
2022/12/15 12:22:52;;;;;;;9.82;7.68;;;;;;;;;;5078665;28;20681;-84
2022/12/15 12:25:23;;;;;;;16.45;10.68;;;;;;;;;;5078385;28;20274;-85
2022/12/15 12:27:55;;;;;;;18.73;11.27;;;;;;;;;;5078783;28;20227;-85
2022/12/15 12:30:24;;;;;;;19.35;10.82;;;;;;;;;;5079363;28;20259;-85
2022/12/15 12:33:00;;;;;;;15.70;10.55;;;;;;;;;;5087083;28;20740;-85
2022/12/15 12:35:37;;;;;;;16.98;11.15;;;;;;;;;;5082952;28;20228;-82
2022/12/15 12:38:06;;;;;;;18.13;11.27;;;;;;;;;;5078095;28;20250;-84
2022/12/15 12:40:49;;;;;;;19.15;11.57;;;;;;;;;;5078110;28;20224;-83
2022/12/15 12:43:27;;;;;;;18.30;11.45;;;;;;;;;;5078877;28;20224;-83
2022/12/15 12:45:59;;;;;;;15.20;11.32;;;;;;;;;;5079156;28;20217;-83
2022/12/15 12:48:32;;;;;;;19.70;12.68;;;;;;;;;;5094749;28;20227;-85
2022/12/15 12:51:19;;;;;;;15.25;10.05;;;;;;;;;;5100502;28;20255;-85
2022/12/15 12:53:47;;;;;;;16.15;10.77;;;;;;;;;;5099365;28;20586;-84
2022/12/15 12:56:37;;;;;;;18.27;11.20;;;;;;;;;;5092259;28;20193;-83
2022/12/15 12:59:35;;;;;;;20.17;12.43;;;;;;;;;;5077558;28;20205;-84
2022/12/15 13:02:47;;;;;;;15.70;10.80;;;;;;;;;;5078126;28;20211;-84
2022/12/15 13:05:34;;;;;;;18.88;12.23;;;;;;;;;;5072369;28;20200;-84
2022/12/15 13:08:54;;;;;;;19.30;12.75;;;;;;;;;;5078926;28;20637;-83
2022/12/15 13:12:00;;;;;;;17.73;10.88;;;;;;;;;;5072352;28;20220;-84
2022/12/15 13:14:48;;;;;;;22.13;13.68;;;;;;;;;;5078464;28;20192;-83
2022/12/15 13:17:38;;;;;;;21.67;13.88;;;;;;;;;;5078193;28;20263;-82
2022/12/15 13:20:27;;;;;;;16.30;10.85;;;;;;;;;;5077935;28;20319;-84
2022/12/15 13:22:57;;;;;;;16.40;11.52;;;;;;;;;;5078903;28;20219;-85
2022/12/15 13:25:41;;;;;;;18.65;13.50;;;;;;;;;;5077913;28;20632;-84
2022/12/15 13:28:43;;;;;;;17.20;11.77;;;;;;;;;;5095118;28;20291;-85
2022/12/15 13:31:31;;;;;;;14.85;9.73;;;;;;;;;;5093955;28;20245;-84
2022/12/15 13:34:24;;;;;;;12.38;8.50;;;;;;;;;;5098633;28;20217;-84
2022/12/15 13:36:56;;;;;;;18.08;11.02;;;;;;;;;;5088214;28;20232;-85
2022/12/15 13:39:57;;;;;;;17.27;10.77;;;;;;;;;;5059097;28;20249;-85
2022/12/15 13:42:33;;;;;;;17.38;11.02;;;;;;;;;;5068947;28;20213;-84
2022/12/15 13:45:42;;;;;;;17.08;10.75;;;;;;;;;;5077621;28;20203;-86
2022/12/15 13:48:24;;;;;;;26.13;13.32;;;;;;;;;;5053696;28;20200;-84
2022/12/15 13:51:02;;;;;;;17.23;12.18;;;;;;;;;;5078422;28;20232;-81
2022/12/15 13:53:32;;;;;;;16.60;10.90;;;;;;;;;;5065987;28;20191;-84
2022/12/15 13:56:28;;;;;;;22.95;13.20;;;;;;;;;;5077700;28;20181;-83
2022/12/15 13:59:01;;;;;;;15.02;10.82;;;;;;;;;;5058394;28;20216;-84
2022/12/15 14:01:31;;;;;;;12.27;8.55;;;;;;;;;;5063595;28;20212;-82
2022/12/15 14:04:04;;;;;;;11.05;9.10;;;;;;;;;;5077813;28;20220;-84
2022/12/15 14:06:37;;;;;;;19.67;11.95;;;;;;;;;;5077897;28;20216;-85
2022/12/15 14:09:06;;;;;;;21.40;14.13;;;;;;;;;;5076770;28;20249;-85
2022/12/15 14:11:36;;;;;;;28.58;17.30;;;;;;;;;;5077714;28;20279;-85
2022/12/15 14:14:04;;;;;;;21.88;15.18;;;;;;;;;;5076924;28;20188;-82
2022/12/15 14:16:35;;;;;;;24.17;16.13;;;;;;;;;;5064386;28;20251;-85
2022/12/15 14:19:16;;;;;;;20.40;14.15;;;;;;;;;;5055981;28;20202;-85
2022/12/15 14:21:50;;;;;;;11.57;8.50;;;;;;;;;;5065188;28;20193;-84
2022/12/15 14:24:29;;;;;;;25.83;13.85;;;;;;;;;;5076082;28;20227;-84
2022/12/15 14:26:57;;;;;;;22.42;13.88;;;;;;;;;;5073719;28;20260;-85
2022/12/15 14:29:25;;;;;;;16.52;11.45;;;;;;;;;;5076193;28;20248;-85
2022/12/15 14:31:58;;;;;;;17.52;11.23;;;;;;;;;;5078153;28;20370;-86
2022/12/15 14:34:32;;;;;;;10.45;7.80;;;;;;;;;;5079958;28;20200;-86
2022/12/15 14:37:03;;;;;;;15.38;10.30;;;;;;;;;;5085280;28;20195;-85
2022/12/15 14:39:36;;;;;;;17.70;11.07;;;;;;;;;;5079566;28;20320;-86
2022/12/15 14:42:03;;;;;;;11.30;8.43;;;;;;;;;;5080189;28;20279;-84
2022/12/15 14:44:37;;;;;;;12.75;8.45;;;;;;;;;;5079654;28;20285;-86
2022/12/15 14:47:08;;;;;;;14.35;10.27;;;;;;;;;;5069596;28;20209;-86
2022/12/15 14:49:41;;;;;;;18.77;13.02;;;;;;;;;;5079037;28;20222;-84
2022/12/15 14:52:23;;;;;;;13.07;9.25;;;;;;;;;;5096053;28;20284;-86
2022/12/15 14:54:54;;;;;;;12.10;9.60;;;;;;;;;;5100823;28;20239;-85
2022/12/15 14:57:24;;;;;;;12.05;7.97;;;;;;;;;;5100349;28;20555;-83
2022/12/15 14:59:52;;;;;;;18.23;13.60;;;;;;;;;;5080862;28;20244;-85
2022/12/15 15:02:25;;;;;;;18.83;12.48;;;;;;;;;;5091491;28;20569;-85
2022/12/15 15:05:01;;;;;;;13.00;9.65;;;;;;;;;;5100247;28;20534;-85
2022/12/15 15:07:30;;;;;;;11.55;7.80;;;;;;;;;;5102175;28;20322;-86
2022/12/15 15:09:57;;;;;;;16.90;11.07;;;;;;;;;;5082268;28;20221;-86
2022/12/15 15:12:28;;;;;;;15.77;10.55;;;;;;;;;;5081670;28;20256;-86
2022/12/15 15:15:03;;;;;;;20.17;13.13;;;;;;;;;;5083570;28;20225;-86
2022/12/15 15:17:36;;;;;;;14.30;9.02;;;;;;;;;;5083006;28;20587;-84
2022/12/15 15:20:08;;;;;;;17.02;11.20;;;;;;;;;;5081378;28;20301;-86
2022/12/15 15:22:40;;;;;;;15.25;10.98;;;;;;;;;;5080566;28;20200;-85
2022/12/15 15:25:28;;;;;;;11.57;10.35;;;;;;;;;;5082280;28;20197;-86
2022/12/15 15:28:11;;;;;;;19.60;13.35;;;;;;;;;;5080945;28;20270;-84
2022/12/15 15:30:43;;;;;;;15.82;10.88;;;;;;;;;;5080404;28;20214;-85
2022/12/15 15:33:12;;;;;;;16.95;11.95;;;;;;;;;;5081470;28;20725;-85
2022/12/15 15:35:42;;;;;;;13.32;10.57;;;;;;;;;;5082020;28;20243;-86
2022/12/15 15:38:21;;;;;;;19.60;12.45;;;;;;;;;;5082051;28;20652;-85
2022/12/15 15:40:51;;;;;;;17.95;11.43;;;;;;;;;;5082663;28;20229;-85
2022/12/15 15:43:19;;;;;;;21.45;13.10;;;;;;;;;;5090845;28;20232;-86
2022/12/15 15:45:47;;;;;;;19.98;13.88;;;;;;;;;;5084401;28;20197;-85
2022/12/15 15:48:21;;;;;;;19.02;14.02;;;;;;;;;;5081498;28;20221;-85
2022/12/15 15:50:49;;;;;;;20.67;12.57;;;;;;;;;;5080714;28;20256;-85
2022/12/15 15:53:20;;;;;;;23.92;13.18;;;;;;;;;;5079990;28;20709;-85
2022/12/15 15:55:50;;;;;;;16.67;10.95;;;;;;;;;;5081266;28;20275;-85
2022/12/15 15:58:18;;;;;;;13.85;8.20;;;;;;;;;;5089655;28;20599;-84
2022/12/15 16:00:45;;;;;;;11.35;7.60;;;;;;;;;;5084002;28;20225;-85
2022/12/15 16:03:13;;;;;;;13.57;8.98;;;;;;;;;;5080932;28;20197;-85
2022/12/15 16:05:42;;;;;;;9.90;7.38;;;;;;;;;;5080168;28;20307;-85
2022/12/15 16:08:16;;;;;;;13.32;8.00;;;;;;;;;;5059971;28;20243;-85
2022/12/15 16:10:45;;;;;;;8.88;7.13;;;;;;;;;;5072227;28;20217;-85
2022/12/15 16:13:13;;;;;;;5.70;5.13;;;;;;;;;;5080601;28;20300;-85
2022/12/15 16:15:41;;;;;;;6.97;5.55;;;;;;;;;;5079775;28;20200;-85
2022/12/15 16:18:08;;;;;;;4.03;3.60;;;;;;;;;;5079735;28;20204;-83
2022/12/15 16:20:38;;;;;;;5.97;4.07;;;;;;;;;;5077000;28;20699;-83
2022/12/15 16:23:13;;;;;;;5.07;4.55;;;;;;;;;;5074940;28;20874;-85
2022/12/15 16:25:44;;;;;;;7.28;5.63;;;;;;;;;;5073227;28;20284;-84
2022/12/15 16:28:17;;;;;;;7.55;4.82;;;;;;;;;;5076744;28;20236;-85
2022/12/15 16:30:45;;;;;;;10.63;6.75;;;;;;;;;;5075734;28;20683;-83
2022/12/15 16:33:13;;;;;;;11.38;8.13;;;;;;;;;;5075317;28;20224;-85
2022/12/15 16:35:42;;;;;;;10.50;7.57;;;;;;;;;;5079531;28;20288;-84
2022/12/15 16:38:18;;;;;;;14.50;10.93;;;;;;;;;;5083501;28;20283;-85
2022/12/15 16:40:46;;;;;;;19.75;12.60;;;;;;;;;;5067537;28;20238;-85
2022/12/15 16:43:17;;;;;;;18.50;11.48;;;;;;;;;;5075201;22;20317;-79
2022/12/15 16:45:46;;;;;;;25.02;14.57;;;;;;;;;;5046206;28;20281;-82
2022/12/15 16:48:13;;;;;;;24.10;12.65;;;;;;;;;;5053892;28;20224;-80
2022/12/15 16:50:44;;;;;;;14.85;10.23;;;;;;;;;;5051674;28;21599;-79
2022/12/15 16:53:17;;;;;;;14.68;10.20;;;;;;;;;;5051622;28;20284;-80
2022/12/15 16:55:45;;;;;;;22.15;15.07;;;;;;;;;;5051127;28;20304;-78
2022/12/15 16:58:15;;;;;;;12.07;8.93;;;;;;;;;;5050199;28;20280;-80
2022/12/15 17:00:44;;;;;;;11.15;6.78;;;;;;;;;;5051380;28;20644;-79
2022/12/15 17:03:13;;;;;;;9.32;6.68;;;;;;;;;;5049806;28;20207;-82
2022/12/15 17:05:43;;;;;;;10.70;7.47;;;;;;;;;;5050438;28;20304;-81
2022/12/15 17:08:18;;;;;;;10.18;6.57;;;;;;;;;;5045118;28;20221;-80
2022/12/15 17:10:46;;;;;;;8.27;5.20;;;;;;;;;;5044085;28;20206;-80
2022/12/15 17:13:21;;;;;;;10.63;8.13;;;;;;;;;;5049663;28;20285;-81
2022/12/15 17:15:49;;;;;;;11.52;7.90;;;;;;;;;;5050067;28;20717;-81
2022/12/15 17:18:16;;;;;;;9.38;7.13;;;;;;;;;;5044738;28;20727;-80
2022/12/15 17:20:44;;;;;;;9.88;6.55;;;;;;;;;;5048290;28;20289;-81